createdAt,value
2023-04-19T06:29:54.755Z,11.83
2023-04-19T06:32:21.784Z,11.98
2023-04-19T06:34:48.850Z,11.96
2023-04-19T06:37:15.952Z,11.96
2023-04-19T06:39:43.039Z,11.94
2023-04-19T06:42:10.326Z,11.97
2023-04-19T06:44:37.567Z,12.04
2023-04-19T06:47:04.736Z,12.04
2023-04-19T06:49:32.159Z,12.10
2023-04-19T06:52:00.996Z,12.14
2023-04-19T06:54:28.077Z,12.21
2023-04-19T06:56:55.095Z,12.22
2023-04-19T06:59:22.283Z,12.28
2023-04-19T07:01:49.572Z,12.32
2023-04-19T07:04:17.671Z,12.39
2023-04-19T07:06:48.520Z,12.42
2023-04-19T07:09:15.855Z,12.43
2023-04-19T07:11:42.995Z,12.46
2023-04-19T07:14:10.160Z,12.51
2023-04-19T07:16:37.144Z,12.63
2023-04-19T07:19:04.519Z,12.66
2023-04-19T07:21:33.647Z,12.78
2023-04-19T07:24:00.830Z,12.88
2023-04-19T07:26:28.087Z,13.04
2023-04-19T07:28:55.110Z,13.12
2023-04-19T07:31:22.126Z,13.18
2023-04-19T07:33:49.176Z,13.29
2023-04-19T07:36:17.709Z,13.30
2023-04-19T07:38:45.118Z,13.40
2023-04-19T07:41:12.180Z,13.46
2023-04-19T07:43:41.000Z,13.55
2023-04-19T07:46:13.114Z,13.62
2023-04-19T07:48:40.617Z,13.68
2023-04-19T07:51:15.283Z,13.76
2023-04-19T07:53:42.657Z,13.81
2023-04-19T07:56:12.712Z,13.90
2023-04-19T07:58:41.847Z,13.96
2023-04-19T08:01:09.443Z,14.04
2023-04-19T08:03:37.278Z,14.09
2023-04-19T08:06:07.398Z,14.13
2023-04-19T08:08:34.594Z,14.18
2023-04-19T08:11:04.857Z,14.23
2023-04-19T08:13:31.829Z,14.30
2023-04-19T08:18:28.740Z,14.43
2023-04-19T08:20:56.871Z,14.49
2023-04-19T08:23:29.517Z,14.57
2023-04-19T08:26:01.781Z,14.65
2023-04-19T08:28:28.650Z,14.70
2023-04-19T08:30:55.599Z,14.75
2023-04-19T08:33:22.613Z,14.76
2023-04-19T08:35:49.567Z,14.83
2023-04-19T08:38:16.497Z,14.90
2023-04-19T08:40:47.842Z,14.95
2023-04-19T08:43:15.744Z,15.03
2023-04-19T08:45:42.757Z,15.06
2023-04-19T08:48:12.016Z,15.13
2023-04-19T08:56:03.461Z,15.27
2023-04-19T09:01:08.307Z,15.40
2023-04-19T09:03:58.527Z,15.47
2023-04-19T09:06:30.105Z,15.48
2023-04-19T09:09:28.896Z,15.53
2023-04-19T09:12:02.547Z,15.60
2023-04-19T09:14:29.842Z,15.63
2023-04-19T09:17:16.690Z,15.64
2023-04-19T09:19:48.188Z,15.67
2023-04-19T09:22:15.151Z,15.69
2023-04-19T09:27:15.283Z,15.75
2023-04-19T09:29:42.232Z,15.78
2023-04-19T09:32:09.227Z,15.80
2023-04-19T09:34:36.186Z,15.82
2023-04-19T09:37:27.592Z,15.90
2023-04-19T09:40:00.848Z,15.93
2023-04-19T09:48:01.382Z,16.06
2023-04-19T09:50:28.978Z,16.16
2023-04-19T09:52:56.247Z,16.23
2023-04-19T09:55:27.905Z,16.24
2023-04-19T09:57:56.057Z,16.26
2023-04-19T10:00:23.687Z,16.26
2023-04-19T10:02:58.631Z,16.26
2023-04-19T10:05:26.721Z,16.29
2023-04-19T10:07:59.600Z,16.31
2023-04-19T10:13:26.336Z,16.49
2023-04-19T10:16:18.796Z,16.55
2023-04-19T10:18:50.206Z,16.60
2023-04-19T10:21:18.571Z,16.67
2023-04-19T10:23:45.719Z,16.73
2023-04-19T10:26:12.591Z,16.74
2023-04-19T10:28:39.435Z,16.77
2023-04-19T10:31:06.513Z,16.81
2023-04-19T10:33:37.400Z,16.82
2023-04-19T10:36:05.681Z,16.81
2023-04-19T10:38:39.798Z,16.81
2023-04-19T10:41:15.505Z,16.85
2023-04-19T10:43:48.114Z,16.86
2023-04-19T10:46:20.996Z,16.83
2023-04-19T10:49:00.912Z,16.80
2023-04-19T10:51:33.587Z,16.77
2023-04-19T10:54:10.180Z,16.75
2023-04-19T10:56:37.203Z,16.71
2023-04-19T10:59:14.449Z,16.65
2023-04-19T11:01:56.293Z,16.61
2023-04-19T11:04:23.445Z,16.58
2023-04-19T11:06:53.143Z,16.57
2023-04-19T11:09:30.066Z,16.64
2023-04-19T11:12:11.973Z,16.73
2023-04-19T11:14:53.286Z,16.81
2023-04-19T11:17:20.884Z,16.85
2023-04-19T11:19:55.972Z,16.92
2023-04-19T11:22:31.440Z,16.99
2023-04-19T11:25:05.521Z,17.07
2023-04-19T11:27:33.896Z,17.10
2023-04-19T11:30:05.879Z,17.15
2023-04-19T11:32:33.139Z,17.19
2023-04-19T11:35:08.212Z,17.24
2023-04-19T11:37:36.597Z,17.24
2023-04-19T11:40:05.619Z,17.22
2023-04-19T11:42:33.223Z,17.18
2023-04-19T11:45:00.212Z,17.16
2023-04-19T11:47:27.560Z,17.15
2023-04-19T11:49:57.734Z,17.17
2023-04-19T11:52:26.015Z,17.17
2023-04-19T11:54:53.570Z,17.12
2023-04-19T11:57:32.371Z,17.13
2023-04-19T12:00:11.849Z,17.14
2023-04-19T12:02:40.523Z,17.11
2023-04-19T12:05:12.403Z,17.12
2023-04-19T12:08:04.580Z,17.15
2023-04-19T12:10:32.296Z,17.20
2023-04-19T12:12:59.395Z,17.20
2023-04-19T12:15:45.795Z,17.21
2023-04-19T12:18:13.058Z,17.24
2023-04-19T12:20:47.763Z,17.28
2023-04-19T12:23:16.173Z,17.39
2023-04-19T12:25:44.772Z,17.44
2023-04-19T12:28:11.640Z,17.51
2023-04-19T12:30:39.265Z,17.56
2023-04-19T12:33:09.701Z,17.60
2023-04-19T12:35:37.625Z,17.70
2023-04-19T12:38:04.576Z,17.77
2023-04-19T12:40:31.545Z,17.88
2023-04-19T12:42:58.514Z,17.88
2023-04-19T12:45:25.426Z,17.96
2023-04-19T12:47:52.427Z,17.95
2023-04-19T12:50:19.405Z,17.99
2023-04-19T12:52:46.497Z,18.05
2023-04-19T12:55:13.461Z,18.10
2023-04-19T12:57:40.352Z,18.12
2023-04-19T13:00:07.900Z,18.16
2023-04-19T13:02:35.474Z,18.19
2023-04-19T13:05:05.331Z,18.21
2023-04-19T13:07:32.362Z,18.25
2023-04-19T13:09:59.635Z,18.32
2023-04-19T13:12:26.513Z,18.36
2023-04-19T13:14:53.361Z,18.40
2023-04-19T13:17:20.492Z,18.42
2023-04-19T13:19:47.717Z,18.42
2023-04-19T13:22:15.046Z,18.45
2023-04-19T13:24:41.905Z,18.46
2023-04-19T13:27:09.369Z,18.59
2023-04-19T13:29:36.730Z,18.60
2023-04-19T13:32:03.855Z,18.60
2023-04-19T13:34:31.639Z,18.57
2023-04-19T13:36:58.475Z,18.58
2023-04-19T13:39:25.561Z,18.59
2023-04-19T13:41:52.489Z,18.57
2023-04-19T13:44:19.501Z,18.59
2023-04-19T13:46:46.457Z,18.60
2023-04-19T13:49:13.368Z,18.57
2023-04-19T13:51:49.771Z,18.55
2023-04-19T13:54:19.140Z,18.55
2023-04-19T13:56:46.642Z,18.61
2023-04-19T13:59:13.464Z,18.69
2023-04-19T14:01:41.314Z,18.63
2023-04-19T14:04:08.415Z,18.60
2023-04-19T14:06:35.538Z,18.58
2023-04-19T14:09:02.517Z,18.60
2023-04-19T14:11:29.363Z,18.59
2023-04-19T14:13:56.469Z,18.61
2023-04-19T14:16:25.545Z,18.61
2023-04-19T14:18:52.949Z,18.62
2023-04-19T14:21:19.965Z,18.64
2023-04-19T14:23:46.970Z,18.63
2023-04-19T14:26:14.436Z,18.63
2023-04-19T14:28:41.282Z,18.62
2023-04-19T14:31:08.156Z,18.60
2023-04-19T14:33:35.074Z,18.60
2023-04-19T14:36:01.987Z,18.63
2023-04-19T14:38:28.915Z,18.61
2023-04-19T14:40:56.570Z,18.61
2023-04-19T14:43:23.459Z,18.59
2023-04-19T14:45:51.443Z,18.62
2023-04-19T14:48:21.440Z,18.66
2023-04-19T14:50:49.314Z,18.72
2023-04-19T14:53:16.396Z,18.68
2023-04-19T14:55:43.259Z,18.69
2023-04-19T14:58:10.418Z,18.67
2023-04-19T15:00:37.436Z,18.68
2023-04-19T15:03:04.416Z,18.72
2023-04-19T15:05:34.910Z,18.73
2023-04-19T15:08:01.912Z,18.72
2023-04-19T15:10:28.737Z,18.68
2023-04-19T15:12:55.766Z,18.70
2023-04-19T15:15:29.364Z,18.68
2023-04-19T15:17:56.936Z,18.68
2023-04-19T15:20:23.839Z,18.71
2023-04-19T15:22:50.707Z,18.71
2023-04-19T15:25:17.796Z,18.74
2023-04-19T15:27:44.749Z,18.74
2023-04-19T15:30:12.505Z,18.74
2023-04-19T15:32:40.379Z,18.73
2023-04-19T15:35:08.515Z,18.75
2023-04-19T15:37:35.428Z,18.76
2023-04-19T15:40:02.439Z,18.76
2023-04-19T15:42:29.265Z,18.76
2023-04-19T15:44:56.074Z,18.76
2023-04-19T15:47:23.136Z,18.75
2023-04-19T15:49:52.808Z,18.72
2023-04-19T15:52:19.750Z,18.70
2023-04-19T15:54:46.677Z,18.66
2023-04-19T15:57:13.487Z,18.62
2023-04-19T15:59:40.596Z,18.61
2023-04-19T16:02:07.705Z,18.57
2023-04-19T16:04:35.012Z,18.54
2023-04-19T16:07:01.970Z,18.51
2023-04-19T16:09:29.049Z,18.51
2023-04-19T16:11:55.942Z,18.49
2023-04-19T16:14:22.798Z,18.47
2023-04-19T16:16:49.786Z,18.44
2023-04-19T16:19:16.911Z,18.41
2023-04-19T16:21:44.013Z,18.39
2023-04-19T16:24:10.966Z,18.39
2023-04-19T16:26:37.766Z,18.37
2023-04-19T16:29:04.788Z,18.35
2023-04-19T16:31:31.722Z,18.33
2023-04-19T16:33:58.588Z,18.30
2023-04-19T16:36:25.487Z,18.25
2023-04-19T16:38:52.456Z,18.23
2023-04-19T16:41:19.305Z,18.21
2023-04-19T16:43:46.214Z,18.20
2023-04-19T16:46:13.077Z,18.15
2023-04-19T16:48:40.028Z,18.12
2023-04-19T16:51:06.899Z,18.08
2023-04-19T16:53:33.797Z,18.08
2023-04-19T16:56:03.459Z,18.04
2023-04-19T16:58:31.119Z,18.03
2023-04-19T17:00:58.522Z,18.00
2023-04-19T17:03:25.996Z,17.97
2023-04-19T17:05:52.916Z,17.95
2023-04-19T17:08:21.576Z,17.92
2023-04-19T17:10:48.576Z,17.90
2023-04-19T17:13:15.497Z,17.86
2023-04-19T17:15:42.440Z,17.84
2023-04-19T17:18:09.445Z,17.82
2023-04-19T17:20:36.344Z,17.81
2023-04-19T17:23:03.176Z,17.78
2023-04-19T17:25:30.031Z,17.77
2023-04-19T17:27:56.971Z,17.74
2023-04-19T17:30:23.869Z,17.71
2023-04-19T17:32:51.348Z,17.67
2023-04-19T17:35:18.383Z,17.65
2023-04-19T17:37:45.399Z,17.64
2023-04-19T17:40:12.586Z,17.60
2023-04-19T17:42:39.531Z,17.58
2023-04-19T17:45:11.147Z,17.55
2023-04-19T17:47:41.238Z,17.53
2023-04-19T17:50:10.933Z,17.49
2023-04-19T17:52:38.329Z,17.47
2023-04-19T17:55:06.686Z,17.43
2023-04-19T17:57:34.208Z,17.41
2023-04-19T18:00:06.183Z,17.37
2023-04-19T18:02:33.202Z,17.34
2023-04-19T18:05:00.245Z,17.31
2023-04-19T18:07:27.313Z,17.28
2023-04-19T18:09:54.113Z,17.26
2023-04-19T18:12:20.951Z,17.22
2023-04-19T18:14:47.747Z,17.20
2023-04-19T18:17:14.647Z,17.17
2023-04-19T18:19:41.639Z,17.16
2023-04-19T18:22:08.819Z,17.13
2023-04-19T18:24:35.654Z,17.10
2023-04-19T18:27:03.496Z,17.08
2023-04-19T18:29:30.450Z,17.05
2023-04-19T18:31:57.435Z,17.04
2023-04-19T18:34:24.288Z,17.01
2023-04-19T18:36:58.729Z,16.99
2023-04-19T18:39:26.175Z,16.96
2023-04-19T18:41:53.123Z,16.95
2023-04-19T18:44:43.890Z,16.94
2023-04-19T18:47:07.128Z,16.91
2023-04-19T18:49:34.261Z,16.90
2023-04-19T18:52:01.152Z,16.87
2023-04-19T18:54:28.071Z,16.86
2023-04-19T18:59:25.034Z,16.82
2023-04-19T19:01:52.719Z,16.81
2023-04-19T19:04:37.324Z,16.80
2023-04-19T19:07:22.933Z,16.80
2023-04-19T19:09:57.240Z,16.79
2023-04-19T19:12:24.157Z,16.77
2023-04-19T19:14:51.163Z,16.75
2023-04-19T19:17:18.114Z,16.72
2023-04-19T19:19:45.091Z,16.70
2023-04-19T19:22:24.994Z,16.66
2023-04-19T19:24:54.316Z,16.62
2023-04-19T19:27:21.504Z,16.59
2023-04-19T19:29:48.492Z,16.52
2023-04-19T19:32:15.444Z,16.46
2023-04-19T19:34:53.946Z,16.41
2023-04-19T19:37:23.283Z,16.35
2023-04-19T19:39:50.123Z,16.34
2023-04-19T19:42:17.449Z,16.29
2023-04-19T19:44:44.532Z,16.23
2023-04-19T19:47:12.612Z,16.15
2023-04-19T19:52:09.257Z,16.06
2023-04-19T19:54:36.210Z,16.00
